sensor_id;sensor_type;location;lat;lon;timestamp;P1;durP1;ratioP1;P2;durP2;ratioP2
69358;SDS011;56520;49.066;8.660;2022-08-16T00:00:09;4.65;;;1.50;;
69358;SDS011;56520;49.066;8.660;2022-08-16T00:02:36;3.00;;;1.00;;
69358;SDS011;56520;49.066;8.660;2022-08-16T00:05:03;3.88;;;1.45;;
69358;SDS011;56520;49.066;8.660;2022-08-16T00:07:31;2.70;;;1.25;;
69358;SDS011;56520;49.066;8.660;2022-08-16T00:09:57;3.95;;;1.50;;
69358;SDS011;56520;49.066;8.660;2022-08-16T00:12:24;4.32;;;1.58;;
69358;SDS011;56520;49.066;8.660;2022-08-16T00:14:50;3.70;;;1.35;;
69358;SDS011;56520;49.066;8.660;2022-08-16T00:17:16;2.78;;;1.10;;
69358;SDS011;56520;49.066;8.660;2022-08-16T00:19:42;3.65;;;1.30;;
69358;SDS011;56520;49.066;8.660;2022-08-16T00:22:07;3.45;;;1.20;;
69358;SDS011;56520;49.066;8.660;2022-08-16T00:24:34;3.50;;;1.30;;
69358;SDS011;56520;49.066;8.660;2022-08-16T00:27:00;3.42;;;1.35;;
69358;SDS011;56520;49.066;8.660;2022-08-16T00:29:27;2.75;;;1.13;;
69358;SDS011;56520;49.066;8.660;2022-08-16T00:31:53;3.78;;;1.42;;
69358;SDS011;56520;49.066;8.660;2022-08-16T00:34:19;3.75;;;1.50;;
69358;SDS011;56520;49.066;8.660;2022-08-16T00:36:46;3.42;;;1.20;;
69358;SDS011;56520;49.066;8.660;2022-08-16T00:39:13;3.78;;;1.40;;
69358;SDS011;56520;49.066;8.660;2022-08-16T00:41:39;3.80;;;1.33;;
69358;SDS011;56520;49.066;8.660;2022-08-16T00:44:06;3.35;;;1.25;;
69358;SDS011;56520;49.066;8.660;2022-08-16T00:46:52;3.45;;;1.05;;
69358;SDS011;56520;49.066;8.660;2022-08-16T00:49:21;2.95;;;1.10;;
69358;SDS011;56520;49.066;8.660;2022-08-16T00:51:48;2.72;;;1.05;;
69358;SDS011;56520;49.066;8.660;2022-08-16T00:54:14;3.25;;;1.13;;
69358;SDS011;56520;49.066;8.660;2022-08-16T00:56:41;3.75;;;1.30;;
69358;SDS011;56520;49.066;8.660;2022-08-16T00:59:09;3.60;;;1.40;;
69358;SDS011;56520;49.066;8.660;2022-08-16T01:01:36;3.90;;;1.52;;
69358;SDS011;56520;49.066;8.660;2022-08-16T01:04:02;4.03;;;1.30;;
69358;SDS011;56520;49.066;8.660;2022-08-16T01:06:28;3.78;;;1.30;;
69358;SDS011;56520;49.066;8.660;2022-08-16T01:08:54;3.65;;;1.30;;
69358;SDS011;56520;49.066;8.660;2022-08-16T01:11:22;5.25;;;1.50;;
69358;SDS011;56520;49.066;8.660;2022-08-16T01:13:49;3.95;;;1.63;;
69358;SDS011;56520;49.066;8.660;2022-08-16T01:16:21;3.78;;;1.25;;
69358;SDS011;56520;49.066;8.660;2022-08-16T01:18:49;3.58;;;1.15;;
69358;SDS011;56520;49.066;8.660;2022-08-16T01:21:22;2.70;;;1.20;;
69358;SDS011;56520;49.066;8.660;2022-08-16T01:24:07;2.35;;;1.00;;
69358;SDS011;56520;49.066;8.660;2022-08-16T01:26:35;2.95;;;1.10;;
69358;SDS011;56520;49.066;8.660;2022-08-16T01:29:08;3.20;;;1.20;;
69358;SDS011;56520;49.066;8.660;2022-08-16T01:31:37;3.47;;;1.30;;
69358;SDS011;56520;49.066;8.660;2022-08-16T01:34:03;4.07;;;1.40;;
69358;SDS011;56520;49.066;8.660;2022-08-16T01:36:29;3.75;;;1.27;;
69358;SDS011;56520;49.066;8.660;2022-08-16T01:39:10;3.50;;;1.20;;
69358;SDS011;56520;49.066;8.660;2022-08-16T01:41:40;3.38;;;1.02;;
69358;SDS011;56520;49.066;8.660;2022-08-16T01:44:07;3.45;;;1.23;;
69358;SDS011;56520;49.066;8.660;2022-08-16T01:49:08;3.80;;;1.30;;
69358;SDS011;56520;49.066;8.660;2022-08-16T01:51:43;3.33;;;1.13;;
69358;SDS011;56520;49.066;8.660;2022-08-16T01:54:11;3.47;;;1.35;;
69358;SDS011;56520;49.066;8.660;2022-08-16T01:56:37;3.83;;;1.48;;
69358;SDS011;56520;49.066;8.660;2022-08-16T01:59:04;3.65;;;1.40;;
69358;SDS011;56520;49.066;8.660;2022-08-16T02:01:32;3.53;;;1.17;;
69358;SDS011;56520;49.066;8.660;2022-08-16T02:03:58;3.65;;;1.40;;
69358;SDS011;56520;49.066;8.660;2022-08-16T02:06:24;4.10;;;1.60;;
69358;SDS011;56520;49.066;8.660;2022-08-16T02:08:51;4.20;;;1.40;;
69358;SDS011;56520;49.066;8.660;2022-08-16T02:11:19;5.15;;;1.70;;
69358;SDS011;56520;49.066;8.660;2022-08-16T02:13:45;4.32;;;1.73;;
69358;SDS011;56520;49.066;8.660;2022-08-16T02:16:11;4.40;;;1.63;;
69358;SDS011;56520;49.066;8.660;2022-08-16T02:18:37;5.45;;;2.00;;
69358;SDS011;56520;49.066;8.660;2022-08-16T02:21:03;4.53;;;2.00;;
69358;SDS011;56520;49.066;8.660;2022-08-16T02:23:30;4.45;;;1.40;;
69358;SDS011;56520;49.066;8.660;2022-08-16T02:25:57;4.78;;;1.90;;
69358;SDS011;56520;49.066;8.660;2022-08-16T02:28:23;4.75;;;1.60;;
69358;SDS011;56520;49.066;8.660;2022-08-16T02:30:50;5.82;;;1.75;;
69358;SDS011;56520;49.066;8.660;2022-08-16T02:33:16;4.00;;;1.58;;
69358;SDS011;56520;49.066;8.660;2022-08-16T02:35:42;3.78;;;1.50;;
69358;SDS011;56520;49.066;8.660;2022-08-16T02:38:08;4.75;;;1.50;;
69358;SDS011;56520;49.066;8.660;2022-08-16T02:40:34;3.67;;;1.30;;
69358;SDS011;56520;49.066;8.660;2022-08-16T02:42:59;4.20;;;1.60;;
69358;SDS011;56520;49.066;8.660;2022-08-16T02:45:26;3.83;;;1.58;;
69358;SDS011;56520;49.066;8.660;2022-08-16T02:47:52;4.45;;;1.70;;
69358;SDS011;56520;49.066;8.660;2022-08-16T02:50:20;4.30;;;1.75;;
69358;SDS011;56520;49.066;8.660;2022-08-16T02:52:49;4.25;;;1.75;;
69358;SDS011;56520;49.066;8.660;2022-08-16T02:55:15;5.63;;;1.80;;
69358;SDS011;56520;49.066;8.660;2022-08-16T02:57:41;3.78;;;1.50;;
69358;SDS011;56520;49.066;8.660;2022-08-16T03:00:07;4.13;;;1.60;;
69358;SDS011;56520;49.066;8.660;2022-08-16T03:02:35;4.68;;;1.65;;
69358;SDS011;56520;49.066;8.660;2022-08-16T03:05:01;4.57;;;1.90;;
69358;SDS011;56520;49.066;8.660;2022-08-16T03:07:28;4.80;;;1.67;;
69358;SDS011;56520;49.066;8.660;2022-08-16T03:09:54;4.63;;;1.73;;
69358;SDS011;56520;49.066;8.660;2022-08-16T03:12:21;4.53;;;1.48;;
69358;SDS011;56520;49.066;8.660;2022-08-16T03:14:47;4.07;;;1.80;;
69358;SDS011;56520;49.066;8.660;2022-08-16T03:17:13;3.83;;;1.52;;
69358;SDS011;56520;49.066;8.660;2022-08-16T03:19:39;4.65;;;1.80;;
69358;SDS011;56520;49.066;8.660;2022-08-16T03:22:05;4.68;;;1.90;;
69358;SDS011;56520;49.066;8.660;2022-08-16T03:24:30;4.07;;;1.50;;
69358;SDS011;56520;49.066;8.660;2022-08-16T03:26:59;4.70;;;1.70;;
69358;SDS011;56520;49.066;8.660;2022-08-16T03:29:26;4.38;;;1.75;;
69358;SDS011;56520;49.066;8.660;2022-08-16T03:31:53;5.15;;;2.15;;
69358;SDS011;56520;49.066;8.660;2022-08-16T03:34:19;4.18;;;1.60;;
69358;SDS011;56520;49.066;8.660;2022-08-16T03:36:44;5.30;;;2.08;;
69358;SDS011;56520;49.066;8.660;2022-08-16T03:39:10;4.55;;;1.63;;
69358;SDS011;56520;49.066;8.660;2022-08-16T03:41:36;3.67;;;1.50;;
69358;SDS011;56520;49.066;8.660;2022-08-16T03:44:02;3.70;;;1.40;;
69358;SDS011;56520;49.066;8.660;2022-08-16T03:46:27;4.78;;;1.92;;
69358;SDS011;56520;49.066;8.660;2022-08-16T03:48:53;4.10;;;1.40;;
69358;SDS011;56520;49.066;8.660;2022-08-16T03:51:19;5.00;;;1.92;;
69358;SDS011;56520;49.066;8.660;2022-08-16T03:53:45;4.43;;;1.80;;
69358;SDS011;56520;49.066;8.660;2022-08-16T03:56:11;5.55;;;1.85;;
69358;SDS011;56520;49.066;8.660;2022-08-16T03:58:36;4.55;;;1.50;;
69358;SDS011;56520;49.066;8.660;2022-08-16T04:01:02;4.93;;;1.70;;
69358;SDS011;56520;49.066;8.660;2022-08-16T04:03:29;5.18;;;1.63;;
69358;SDS011;56520;49.066;8.660;2022-08-16T04:05:55;6.00;;;2.15;;
69358;SDS011;56520;49.066;8.660;2022-08-16T04:08:21;5.43;;;2.08;;
69358;SDS011;56520;49.066;8.660;2022-08-16T04:10:48;6.00;;;2.05;;
69358;SDS011;56520;49.066;8.660;2022-08-16T04:13:14;5.30;;;2.22;;
69358;SDS011;56520;49.066;8.660;2022-08-16T04:15:40;5.18;;;1.98;;
69358;SDS011;56520;49.066;8.660;2022-08-16T04:18:06;5.80;;;2.33;;
69358;SDS011;56520;49.066;8.660;2022-08-16T04:20:33;5.28;;;2.10;;
69358;SDS011;56520;49.066;8.660;2022-08-16T04:22:58;4.32;;;1.55;;
69358;SDS011;56520;49.066;8.660;2022-08-16T04:25:25;5.07;;;1.90;;
69358;SDS011;56520;49.066;8.660;2022-08-16T04:27:51;5.18;;;2.03;;
69358;SDS011;56520;49.066;8.660;2022-08-16T04:30:17;6.03;;;2.03;;
69358;SDS011;56520;49.066;8.660;2022-08-16T04:32:44;4.45;;;1.92;;
69358;SDS011;56520;49.066;8.660;2022-08-16T04:35:11;6.03;;;2.05;;
69358;SDS011;56520;49.066;8.660;2022-08-16T04:37:46;5.10;;;1.95;;
69358;SDS011;56520;49.066;8.660;2022-08-16T04:40:12;5.32;;;2.10;;
69358;SDS011;56520;49.066;8.660;2022-08-16T04:42:38;6.85;;;2.33;;
69358;SDS011;56520;49.066;8.660;2022-08-16T04:45:06;6.10;;;2.50;;
69358;SDS011;56520;49.066;8.660;2022-08-16T04:47:34;5.03;;;1.80;;
69358;SDS011;56520;49.066;8.660;2022-08-16T04:50:04;5.93;;;2.28;;
69358;SDS011;56520;49.066;8.660;2022-08-16T04:52:32;5.43;;;1.80;;
69358;SDS011;56520;49.066;8.660;2022-08-16T04:54:58;5.22;;;2.00;;
69358;SDS011;56520;49.066;8.660;2022-08-16T04:57:23;5.18;;;1.63;;
69358;SDS011;56520;49.066;8.660;2022-08-16T04:59:48;4.47;;;2.00;;
69358;SDS011;56520;49.066;8.660;2022-08-16T05:02:14;4.95;;;2.03;;
69358;SDS011;56520;49.066;8.660;2022-08-16T05:04:39;4.40;;;1.60;;
69358;SDS011;56520;49.066;8.660;2022-08-16T05:07:05;5.07;;;1.95;;
69358;SDS011;56520;49.066;8.660;2022-08-16T05:09:33;5.65;;;1.90;;
69358;SDS011;56520;49.066;8.660;2022-08-16T05:11:58;4.90;;;2.00;;
69358;SDS011;56520;49.066;8.660;2022-08-16T05:14:24;5.63;;;2.20;;
69358;SDS011;56520;49.066;8.660;2022-08-16T05:16:52;5.30;;;2.15;;
69358;SDS011;56520;49.066;8.660;2022-08-16T05:19:18;5.30;;;2.00;;
69358;SDS011;56520;49.066;8.660;2022-08-16T05:21:43;5.85;;;2.05;;
69358;SDS011;56520;49.066;8.660;2022-08-16T05:24:09;5.45;;;2.55;;
69358;SDS011;56520;49.066;8.660;2022-08-16T05:26:34;5.00;;;2.10;;
69358;SDS011;56520;49.066;8.660;2022-08-16T05:29:02;5.15;;;2.05;;
69358;SDS011;56520;49.066;8.660;2022-08-16T05:31:28;4.97;;;2.05;;
69358;SDS011;56520;49.066;8.660;2022-08-16T05:33:53;6.05;;;2.28;;
69358;SDS011;56520;49.066;8.660;2022-08-16T05:36:19;5.30;;;2.17;;
69358;SDS011;56520;49.066;8.660;2022-08-16T05:38:45;5.75;;;2.25;;
69358;SDS011;56520;49.066;8.660;2022-08-16T05:41:11;4.75;;;2.15;;
69358;SDS011;56520;49.066;8.660;2022-08-16T05:43:37;5.38;;;2.30;;
69358;SDS011;56520;49.066;8.660;2022-08-16T05:46:03;5.47;;;2.03;;
69358;SDS011;56520;49.066;8.660;2022-08-16T05:48:28;4.72;;;1.80;;
69358;SDS011;56520;49.066;8.660;2022-08-16T05:50:54;7.18;;;2.20;;
69358;SDS011;56520;49.066;8.660;2022-08-16T05:53:19;6.50;;;2.40;;
69358;SDS011;56520;49.066;8.660;2022-08-16T05:55:45;6.30;;;2.53;;
69358;SDS011;56520;49.066;8.660;2022-08-16T05:58:11;5.88;;;2.47;;
69358;SDS011;56520;49.066;8.660;2022-08-16T06:00:36;5.47;;;2.50;;
69358;SDS011;56520;49.066;8.660;2022-08-16T06:03:02;5.50;;;2.40;;
69358;SDS011;56520;49.066;8.660;2022-08-16T06:05:27;5.38;;;2.13;;
69358;SDS011;56520;49.066;8.660;2022-08-16T06:07:53;5.20;;;2.13;;
69358;SDS011;56520;49.066;8.660;2022-08-16T06:10:18;5.72;;;2.28;;
69358;SDS011;56520;49.066;8.660;2022-08-16T06:12:44;5.30;;;2.30;;
69358;SDS011;56520;49.066;8.660;2022-08-16T06:15:15;5.63;;;2.03;;
69358;SDS011;56520;49.066;8.660;2022-08-16T06:20:08;5.35;;;2.13;;
69358;SDS011;56520;49.066;8.660;2022-08-16T06:22:35;5.68;;;2.20;;
69358;SDS011;56520;49.066;8.660;2022-08-16T06:25:02;6.53;;;2.30;;
69358;SDS011;56520;49.066;8.660;2022-08-16T06:27:28;6.32;;;2.60;;
69358;SDS011;56520;49.066;8.660;2022-08-16T06:29:54;6.20;;;2.75;;
69358;SDS011;56520;49.066;8.660;2022-08-16T06:32:19;6.78;;;2.58;;
69358;SDS011;56520;49.066;8.660;2022-08-16T06:34:45;5.78;;;2.47;;
69358;SDS011;56520;49.066;8.660;2022-08-16T06:37:10;6.85;;;3.40;;
69358;SDS011;56520;49.066;8.660;2022-08-16T06:39:35;6.82;;;2.33;;
69358;SDS011;56520;49.066;8.660;2022-08-16T06:42:01;6.10;;;2.35;;
69358;SDS011;56520;49.066;8.660;2022-08-16T06:44:27;5.95;;;2.58;;
69358;SDS011;56520;49.066;8.660;2022-08-16T06:46:52;5.53;;;2.25;;
69358;SDS011;56520;49.066;8.660;2022-08-16T06:49:18;5.32;;;2.20;;
69358;SDS011;56520;49.066;8.660;2022-08-16T06:51:43;5.35;;;2.42;;
69358;SDS011;56520;49.066;8.660;2022-08-16T06:54:09;5.72;;;2.30;;
69358;SDS011;56520;49.066;8.660;2022-08-16T06:56:38;6.70;;;2.38;;
69358;SDS011;56520;49.066;8.660;2022-08-16T06:59:03;5.35;;;2.28;;
69358;SDS011;56520;49.066;8.660;2022-08-16T07:01:29;5.30;;;2.30;;
69358;SDS011;56520;49.066;8.660;2022-08-16T07:03:54;5.57;;;2.25;;
69358;SDS011;56520;49.066;8.660;2022-08-16T07:06:20;5.82;;;2.40;;
69358;SDS011;56520;49.066;8.660;2022-08-16T07:08:46;5.93;;;2.35;;
69358;SDS011;56520;49.066;8.660;2022-08-16T07:11:13;6.13;;;2.30;;
69358;SDS011;56520;49.066;8.660;2022-08-16T07:13:39;7.53;;;2.50;;
69358;SDS011;56520;49.066;8.660;2022-08-16T07:16:05;5.65;;;2.45;;
69358;SDS011;56520;49.066;8.660;2022-08-16T07:18:36;5.55;;;2.28;;
69358;SDS011;56520;49.066;8.660;2022-08-16T07:21:01;6.13;;;2.25;;
69358;SDS011;56520;49.066;8.660;2022-08-16T07:23:27;5.97;;;2.17;;
69358;SDS011;56520;49.066;8.660;2022-08-16T07:25:52;5.57;;;2.70;;
69358;SDS011;56520;49.066;8.660;2022-08-16T07:28:18;6.22;;;2.47;;
69358;SDS011;56520;49.066;8.660;2022-08-16T07:30:44;5.55;;;2.33;;
69358;SDS011;56520;49.066;8.660;2022-08-16T07:33:10;5.72;;;2.58;;
69358;SDS011;56520;49.066;8.660;2022-08-16T07:35:37;6.82;;;2.45;;
69358;SDS011;56520;49.066;8.660;2022-08-16T07:38:03;6.57;;;2.45;;
69358;SDS011;56520;49.066;8.660;2022-08-16T07:40:30;6.13;;;2.72;;
69358;SDS011;56520;49.066;8.660;2022-08-16T07:42:59;5.60;;;2.42;;
69358;SDS011;56520;49.066;8.660;2022-08-16T07:45:24;6.60;;;2.38;;
69358;SDS011;56520;49.066;8.660;2022-08-16T07:47:50;4.82;;;2.00;;
69358;SDS011;56520;49.066;8.660;2022-08-16T07:50:15;5.70;;;2.33;;
69358;SDS011;56520;49.066;8.660;2022-08-16T07:52:42;5.45;;;2.30;;
69358;SDS011;56520;49.066;8.660;2022-08-16T07:55:09;5.60;;;2.47;;
69358;SDS011;56520;49.066;8.660;2022-08-16T07:57:37;6.32;;;2.58;;
69358;SDS011;56520;49.066;8.660;2022-08-16T08:00:04;7.28;;;2.72;;
69358;SDS011;56520;49.066;8.660;2022-08-16T08:02:30;8.13;;;2.88;;
69358;SDS011;56520;49.066;8.660;2022-08-16T08:04:55;5.57;;;2.30;;
69358;SDS011;56520;49.066;8.660;2022-08-16T08:07:21;7.78;;;2.53;;
69358;SDS011;56520;49.066;8.660;2022-08-16T08:09:48;5.90;;;2.42;;
69358;SDS011;56520;49.066;8.660;2022-08-16T08:12:13;10.30;;;2.70;;
69358;SDS011;56520;49.066;8.660;2022-08-16T08:14:39;6.35;;;2.53;;
69358;SDS011;56520;49.066;8.660;2022-08-16T08:17:04;6.65;;;2.67;;
69358;SDS011;56520;49.066;8.660;2022-08-16T08:19:34;6.82;;;2.65;;
69358;SDS011;56520;49.066;8.660;2022-08-16T08:22:00;6.40;;;2.20;;
69358;SDS011;56520;49.066;8.660;2022-08-16T08:24:25;6.22;;;2.50;;
69358;SDS011;56520;49.066;8.660;2022-08-16T08:26:52;7.10;;;2.72;;
69358;SDS011;56520;49.066;8.660;2022-08-16T08:29:18;6.88;;;2.40;;
69358;SDS011;56520;49.066;8.660;2022-08-16T08:31:44;5.82;;;2.67;;
69358;SDS011;56520;49.066;8.660;2022-08-16T08:34:09;6.60;;;2.55;;
69358;SDS011;56520;49.066;8.660;2022-08-16T08:36:35;8.65;;;3.00;;
69358;SDS011;56520;49.066;8.660;2022-08-16T08:39:01;7.53;;;2.60;;
69358;SDS011;56520;49.066;8.660;2022-08-16T08:41:29;6.38;;;2.63;;
69358;SDS011;56520;49.066;8.660;2022-08-16T08:43:55;6.45;;;2.47;;
69358;SDS011;56520;49.066;8.660;2022-08-16T08:46:21;8.13;;;3.00;;
69358;SDS011;56520;49.066;8.660;2022-08-16T08:48:48;8.23;;;2.63;;
69358;SDS011;56520;49.066;8.660;2022-08-16T08:51:15;6.72;;;2.72;;
69358;SDS011;56520;49.066;8.660;2022-08-16T08:53:43;7.22;;;2.75;;
69358;SDS011;56520;49.066;8.660;2022-08-16T08:56:10;6.88;;;2.72;;
69358;SDS011;56520;49.066;8.660;2022-08-16T08:58:37;5.30;;;2.40;;
69358;SDS011;56520;49.066;8.660;2022-08-16T09:01:03;7.05;;;3.05;;
69358;SDS011;56520;49.066;8.660;2022-08-16T09:03:31;5.95;;;2.55;;
69358;SDS011;56520;49.066;8.660;2022-08-16T09:05:57;7.05;;;2.60;;
69358;SDS011;56520;49.066;8.660;2022-08-16T09:08:23;6.78;;;3.33;;
69358;SDS011;56520;49.066;8.660;2022-08-16T09:10:51;8.02;;;2.70;;
69358;SDS011;56520;49.066;8.660;2022-08-16T09:13:17;6.05;;;2.58;;
69358;SDS011;56520;49.066;8.660;2022-08-16T09:15:43;6.70;;;2.60;;
69358;SDS011;56520;49.066;8.660;2022-08-16T09:18:08;6.28;;;2.50;;
69358;SDS011;56520;49.066;8.660;2022-08-16T09:20:34;6.40;;;2.45;;
69358;SDS011;56520;49.066;8.660;2022-08-16T09:22:59;6.97;;;2.90;;
69358;SDS011;56520;49.066;8.660;2022-08-16T09:25:26;7.88;;;2.58;;
69358;SDS011;56520;49.066;8.660;2022-08-16T09:27:52;6.22;;;2.50;;
69358;SDS011;56520;49.066;8.660;2022-08-16T09:30:17;5.70;;;2.60;;
69358;SDS011;56520;49.066;8.660;2022-08-16T09:32:43;6.00;;;2.53;;
69358;SDS011;56520;49.066;8.660;2022-08-16T09:35:09;7.40;;;2.50;;
69358;SDS011;56520;49.066;8.660;2022-08-16T09:37:34;8.05;;;2.35;;
69358;SDS011;56520;49.066;8.660;2022-08-16T09:40:00;5.63;;;2.33;;
69358;SDS011;56520;49.066;8.660;2022-08-16T09:42:28;6.13;;;2.40;;
69358;SDS011;56520;49.066;8.660;2022-08-16T09:44:54;6.15;;;2.30;;
69358;SDS011;56520;49.066;8.660;2022-08-16T09:47:20;6.00;;;2.50;;
69358;SDS011;56520;49.066;8.660;2022-08-16T09:49:46;6.20;;;2.35;;
69358;SDS011;56520;49.066;8.660;2022-08-16T09:52:11;6.40;;;2.53;;
69358;SDS011;56520;49.066;8.660;2022-08-16T09:54:37;7.88;;;2.80;;
69358;SDS011;56520;49.066;8.660;2022-08-16T09:57:04;6.20;;;2.28;;
69358;SDS011;56520;49.066;8.660;2022-08-16T09:59:31;7.90;;;2.35;;
69358;SDS011;56520;49.066;8.660;2022-08-16T10:01:57;6.55;;;2.38;;
69358;SDS011;56520;49.066;8.660;2022-08-16T10:04:24;5.93;;;2.60;;
69358;SDS011;56520;49.066;8.660;2022-08-16T10:06:51;4.93;;;1.90;;
69358;SDS011;56520;49.066;8.660;2022-08-16T10:09:20;5.63;;;2.20;;
69358;SDS011;56520;49.066;8.660;2022-08-16T10:11:47;5.88;;;2.20;;
69358;SDS011;56520;49.066;8.660;2022-08-16T10:14:34;7.05;;;2.50;;
69358;SDS011;56520;49.066;8.660;2022-08-16T10:17:01;6.30;;;2.22;;
69358;SDS011;56520;49.066;8.660;2022-08-16T10:19:28;6.00;;;2.40;;
69358;SDS011;56520;49.066;8.660;2022-08-16T10:21:55;6.47;;;2.50;;
69358;SDS011;56520;49.066;8.660;2022-08-16T10:24:21;6.25;;;2.33;;
69358;SDS011;56520;49.066;8.660;2022-08-16T10:26:47;7.20;;;2.40;;
69358;SDS011;56520;49.066;8.660;2022-08-16T10:29:13;5.65;;;2.47;;
69358;SDS011;56520;49.066;8.660;2022-08-16T10:31:40;6.32;;;2.50;;
69358;SDS011;56520;49.066;8.660;2022-08-16T10:34:05;5.30;;;2.30;;
69358;SDS011;56520;49.066;8.660;2022-08-16T10:36:31;6.28;;;2.35;;
69358;SDS011;56520;49.066;8.660;2022-08-16T10:38:56;6.40;;;2.22;;
69358;SDS011;56520;49.066;8.660;2022-08-16T10:41:22;5.35;;;2.20;;
69358;SDS011;56520;49.066;8.660;2022-08-16T10:43:48;6.68;;;2.42;;
69358;SDS011;56520;49.066;8.660;2022-08-16T10:46:15;5.70;;;2.10;;
69358;SDS011;56520;49.066;8.660;2022-08-16T10:48:42;6.70;;;2.55;;
69358;SDS011;56520;49.066;8.660;2022-08-16T10:51:09;5.97;;;2.25;;
69358;SDS011;56520;49.066;8.660;2022-08-16T10:53:35;6.60;;;2.40;;
69358;SDS011;56520;49.066;8.660;2022-08-16T10:56:02;5.60;;;2.10;;
69358;SDS011;56520;49.066;8.660;2022-08-16T10:58:30;5.93;;;2.38;;
69358;SDS011;56520;49.066;8.660;2022-08-16T11:00:57;5.82;;;2.33;;
69358;SDS011;56520;49.066;8.660;2022-08-16T11:03:22;7.32;;;2.60;;
69358;SDS011;56520;49.066;8.660;2022-08-16T11:05:48;6.90;;;2.10;;
69358;SDS011;56520;49.066;8.660;2022-08-16T11:08:14;5.25;;;2.00;;
69358;SDS011;56520;49.066;8.660;2022-08-16T11:10:42;6.40;;;2.50;;
69358;SDS011;56520;49.066;8.660;2022-08-16T11:13:10;4.68;;;2.10;;
69358;SDS011;56520;49.066;8.660;2022-08-16T11:15:38;5.72;;;2.20;;
69358;SDS011;56520;49.066;8.660;2022-08-16T11:18:04;5.95;;;2.20;;
69358;SDS011;56520;49.066;8.660;2022-08-16T11:20:31;7.18;;;1.85;;
69358;SDS011;56520;49.066;8.660;2022-08-16T11:22:57;5.40;;;2.00;;
69358;SDS011;56520;49.066;8.660;2022-08-16T11:25:25;4.82;;;1.90;;
69358;SDS011;56520;49.066;8.660;2022-08-16T11:27:52;5.43;;;2.10;;
69358;SDS011;56520;49.066;8.660;2022-08-16T11:30:19;6.88;;;2.10;;
69358;SDS011;56520;49.066;8.660;2022-08-16T11:32:45;5.88;;;2.15;;
69358;SDS011;56520;49.066;8.660;2022-08-16T11:35:14;5.57;;;2.22;;
69358;SDS011;56520;49.066;8.660;2022-08-16T11:37:54;6.72;;;1.92;;
69358;SDS011;56520;49.066;8.660;2022-08-16T11:40:22;5.75;;;2.30;;
69358;SDS011;56520;49.066;8.660;2022-08-16T11:42:50;5.60;;;2.25;;
69358;SDS011;56520;49.066;8.660;2022-08-16T11:45:15;5.80;;;2.22;;
69358;SDS011;56520;49.066;8.660;2022-08-16T11:47:41;5.32;;;2.17;;
69358;SDS011;56520;49.066;8.660;2022-08-16T11:50:06;5.82;;;1.70;;
69358;SDS011;56520;49.066;8.660;2022-08-16T11:52:33;5.18;;;1.70;;
69358;SDS011;56520;49.066;8.660;2022-08-16T11:55:03;5.07;;;1.80;;
69358;SDS011;56520;49.066;8.660;2022-08-16T11:57:31;5.10;;;1.98;;
69358;SDS011;56520;49.066;8.660;2022-08-16T11:59:57;4.90;;;2.00;;
69358;SDS011;56520;49.066;8.660;2022-08-16T12:02:22;5.70;;;1.70;;
69358;SDS011;56520;49.066;8.660;2022-08-16T12:04:47;5.35;;;1.90;;
69358;SDS011;56520;49.066;8.660;2022-08-16T12:07:13;5.20;;;1.73;;
69358;SDS011;56520;49.066;8.660;2022-08-16T12:09:38;4.97;;;1.90;;
69358;SDS011;56520;49.066;8.660;2022-08-16T12:12:04;5.55;;;2.00;;
69358;SDS011;56520;49.066;8.660;2022-08-16T12:14:30;5.53;;;2.33;;
69358;SDS011;56520;49.066;8.660;2022-08-16T12:16:57;6.32;;;2.30;;
69358;SDS011;56520;49.066;8.660;2022-08-16T12:19:24;5.13;;;1.90;;
69358;SDS011;56520;49.066;8.660;2022-08-16T12:21:50;5.65;;;2.08;;
69358;SDS011;56520;49.066;8.660;2022-08-16T12:24:15;5.30;;;1.80;;
69358;SDS011;56520;49.066;8.660;2022-08-16T12:26:41;5.47;;;2.00;;
69358;SDS011;56520;49.066;8.660;2022-08-16T12:29:06;6.03;;;2.20;;
69358;SDS011;56520;49.066;8.660;2022-08-16T12:31:32;4.38;;;1.92;;
69358;SDS011;56520;49.066;8.660;2022-08-16T12:33:58;5.50;;;1.88;;
69358;SDS011;56520;49.066;8.660;2022-08-16T12:36:23;5.38;;;2.30;;
69358;SDS011;56520;49.066;8.660;2022-08-16T12:38:50;4.45;;;1.63;;
69358;SDS011;56520;49.066;8.660;2022-08-16T12:41:16;4.70;;;2.00;;
69358;SDS011;56520;49.066;8.660;2022-08-16T12:43:41;6.25;;;1.88;;
69358;SDS011;56520;49.066;8.660;2022-08-16T12:46:07;4.43;;;1.77;;
69358;SDS011;56520;49.066;8.660;2022-08-16T12:48:34;4.40;;;1.70;;
69358;SDS011;56520;49.066;8.660;2022-08-16T12:51:20;4.65;;;1.70;;
69358;SDS011;56520;49.066;8.660;2022-08-16T12:53:51;4.60;;;1.70;;
69358;SDS011;56520;49.066;8.660;2022-08-16T12:56:20;4.63;;;1.85;;
69358;SDS011;56520;49.066;8.660;2022-08-16T12:58:47;4.72;;;1.80;;
69358;SDS011;56520;49.066;8.660;2022-08-16T13:01:14;4.28;;;1.60;;
69358;SDS011;56520;49.066;8.660;2022-08-16T13:03:49;5.55;;;2.10;;
69358;SDS011;56520;49.066;8.660;2022-08-16T13:06:16;5.20;;;2.10;;
69358;SDS011;56520;49.066;8.660;2022-08-16T13:08:41;6.40;;;2.13;;
69358;SDS011;56520;49.066;8.660;2022-08-16T13:11:08;4.72;;;2.00;;
69358;SDS011;56520;49.066;8.660;2022-08-16T13:13:34;5.80;;;1.90;;
69358;SDS011;56520;49.066;8.660;2022-08-16T13:16:00;5.20;;;1.92;;
69358;SDS011;56520;49.066;8.660;2022-08-16T13:18:28;6.30;;;2.20;;
69358;SDS011;56520;49.066;8.660;2022-08-16T13:20:55;4.90;;;2.03;;
69358;SDS011;56520;49.066;8.660;2022-08-16T13:23:21;5.40;;;1.90;;
69358;SDS011;56520;49.066;8.660;2022-08-16T13:25:48;6.05;;;1.83;;
69358;SDS011;56520;49.066;8.660;2022-08-16T13:28:14;5.32;;;1.98;;
69358;SDS011;56520;49.066;8.660;2022-08-16T13:30:42;4.95;;;1.80;;
69358;SDS011;56520;49.066;8.660;2022-08-16T13:33:15;4.97;;;2.00;;
69358;SDS011;56520;49.066;8.660;2022-08-16T13:35:45;5.50;;;2.20;;
69358;SDS011;56520;49.066;8.660;2022-08-16T13:38:13;5.78;;;2.25;;
69358;SDS011;56520;49.066;8.660;2022-08-16T13:40:39;5.00;;;2.05;;
69358;SDS011;56520;49.066;8.660;2022-08-16T13:43:05;5.40;;;1.90;;
69358;SDS011;56520;49.066;8.660;2022-08-16T13:45:30;5.38;;;2.08;;
69358;SDS011;56520;49.066;8.660;2022-08-16T13:47:57;5.85;;;1.90;;
69358;SDS011;56520;49.066;8.660;2022-08-16T13:50:23;5.47;;;1.67;;
69358;SDS011;56520;49.066;8.660;2022-08-16T13:52:49;6.25;;;1.90;;
69358;SDS011;56520;49.066;8.660;2022-08-16T13:55:15;5.80;;;1.90;;
69358;SDS011;56520;49.066;8.660;2022-08-16T13:57:40;4.40;;;1.70;;
69358;SDS011;56520;49.066;8.660;2022-08-16T14:00:08;5.05;;;1.95;;
69358;SDS011;56520;49.066;8.660;2022-08-16T14:02:34;4.25;;;1.67;;
69358;SDS011;56520;49.066;8.660;2022-08-16T14:05:00;4.93;;;1.80;;
69358;SDS011;56520;49.066;8.660;2022-08-16T14:07:26;4.93;;;1.80;;
69358;SDS011;56520;49.066;8.660;2022-08-16T14:09:52;5.15;;;1.80;;
69358;SDS011;56520;49.066;8.660;2022-08-16T14:12:22;5.00;;;1.88;;
69358;SDS011;56520;49.066;8.660;2022-08-16T14:14:55;4.28;;;1.70;;
69358;SDS011;56520;49.066;8.660;2022-08-16T14:17:22;4.60;;;1.77;;
69358;SDS011;56520;49.066;8.660;2022-08-16T14:19:48;4.63;;;1.83;;
69358;SDS011;56520;49.066;8.660;2022-08-16T14:22:15;4.38;;;1.83;;
69358;SDS011;56520;49.066;8.660;2022-08-16T14:24:43;4.47;;;1.92;;
69358;SDS011;56520;49.066;8.660;2022-08-16T14:27:09;4.78;;;1.95;;
69358;SDS011;56520;49.066;8.660;2022-08-16T14:29:36;5.15;;;1.80;;
69358;SDS011;56520;49.066;8.660;2022-08-16T14:32:04;3.95;;;1.70;;
69358;SDS011;56520;49.066;8.660;2022-08-16T14:34:30;4.72;;;1.80;;
69358;SDS011;56520;49.066;8.660;2022-08-16T14:36:56;4.65;;;1.70;;
69358;SDS011;56520;49.066;8.660;2022-08-16T14:39:22;4.63;;;1.80;;
69358;SDS011;56520;49.066;8.660;2022-08-16T14:41:47;4.00;;;1.70;;
69358;SDS011;56520;49.066;8.660;2022-08-16T14:44:13;4.93;;;1.70;;
69358;SDS011;56520;49.066;8.660;2022-08-16T14:46:39;3.88;;;1.63;;
69358;SDS011;56520;49.066;8.660;2022-08-16T14:49:04;3.88;;;1.50;;